sensor_id;sensor_type;location;lat;lon;timestamp;temperature;humidity
13992;DHT22;7070;53.586;9.692;2023-01-19T00:02:23;2.70;90.20
13992;DHT22;7070;53.586;9.692;2023-01-19T00:04:50;2.80;90.60
13992;DHT22;7070;53.586;9.692;2023-01-19T00:07:18;2.80;90.20
13992;DHT22;7070;53.586;9.692;2023-01-19T00:09:45;2.80;90.20
13992;DHT22;7070;53.586;9.692;2023-01-19T00:12:11;2.90;90.20
13992;DHT22;7070;53.586;9.692;2023-01-19T00:14:38;2.90;90.20
13992;DHT22;7070;53.586;9.692;2023-01-19T00:17:05;2.90;90.20
13992;DHT22;7070;53.586;9.692;2023-01-19T00:19:32;3.00;90.20
13992;DHT22;7070;53.586;9.692;2023-01-19T00:21:59;2.90;90.50
13992;DHT22;7070;53.586;9.692;2023-01-19T00:24:27;3.00;90.20
13992;DHT22;7070;53.586;9.692;2023-01-19T00:26:54;3.00;90.20
13992;DHT22;7070;53.586;9.692;2023-01-19T00:29:20;3.00;90.20
13992;DHT22;7070;53.586;9.692;2023-01-19T00:31:48;3.00;90.20
13992;DHT22;7070;53.586;9.692;2023-01-19T00:34:15;3.10;90.20
13992;DHT22;7070;53.586;9.692;2023-01-19T00:36:42;3.10;90.20
13992;DHT22;7070;53.586;9.692;2023-01-19T00:39:09;3.10;90.10
13992;DHT22;7070;53.586;9.692;2023-01-19T00:41:37;3.10;90.10
13992;DHT22;7070;53.586;9.692;2023-01-19T00:44:21;3.10;90.10
13992;DHT22;7070;53.586;9.692;2023-01-19T00:46:48;3.10;90.10
13992;DHT22;7070;53.586;9.692;2023-01-19T00:49:15;3.10;90.10
13992;DHT22;7070;53.586;9.692;2023-01-19T00:51:41;3.20;90.10
13992;DHT22;7070;53.586;9.692;2023-01-19T00:54:08;3.20;90.10
13992;DHT22;7070;53.586;9.692;2023-01-19T00:56:36;3.20;90.10
13992;DHT22;7070;53.586;9.692;2023-01-19T00:59:03;3.20;90.00
13992;DHT22;7070;53.586;9.692;2023-01-19T01:01:30;3.20;90.00
13992;DHT22;7070;53.586;9.692;2023-01-19T01:03:57;3.20;90.00
13992;DHT22;7070;53.586;9.692;2023-01-19T01:06:24;3.20;90.30
13992;DHT22;7070;53.586;9.692;2023-01-19T01:08:51;3.20;90.00
13992;DHT22;7070;53.586;9.692;2023-01-19T01:11:17;3.30;90.00
13992;DHT22;7070;53.586;9.692;2023-01-19T01:13:46;3.30;89.90
13992;DHT22;7070;53.586;9.692;2023-01-19T01:16:14;3.30;90.00
13992;DHT22;7070;53.586;9.692;2023-01-19T01:18:40;3.30;89.90
13992;DHT22;7070;53.586;9.692;2023-01-19T01:21:08;3.20;89.80
13992;DHT22;7070;53.586;9.692;2023-01-19T01:23:35;3.30;89.80
13992;DHT22;7070;53.586;9.692;2023-01-19T01:26:02;3.30;89.70
13992;DHT22;7070;53.586;9.692;2023-01-19T01:28:30;3.30;89.70
13992;DHT22;7070;53.586;9.692;2023-01-19T01:30:58;3.30;89.70
13992;DHT22;7070;53.586;9.692;2023-01-19T01:33:25;3.40;89.70
13992;DHT22;7070;53.586;9.692;2023-01-19T01:35:52;3.40;89.70
13992;DHT22;7070;53.586;9.692;2023-01-19T01:38:18;3.40;89.60
13992;DHT22;7070;53.586;9.692;2023-01-19T01:40:45;3.40;89.60
13992;DHT22;7070;53.586;9.692;2023-01-19T01:43:13;3.40;89.50
13992;DHT22;7070;53.586;9.692;2023-01-19T01:45:40;3.40;89.50
13992;DHT22;7070;53.586;9.692;2023-01-19T01:48:11;3.40;89.50
13992;DHT22;7070;53.586;9.692;2023-01-19T01:50:43;3.40;89.50
13992;DHT22;7070;53.586;9.692;2023-01-19T01:53:33;3.40;89.50
13992;DHT22;7070;53.586;9.692;2023-01-19T01:56:02;3.40;89.50
13992;DHT22;7070;53.586;9.692;2023-01-19T01:58:31;3.50;89.60
13992;DHT22;7070;53.586;9.692;2023-01-19T02:00:58;3.50;89.60
13992;DHT22;7070;53.586;9.692;2023-01-19T02:03:43;3.50;89.50
13992;DHT22;7070;53.586;9.692;2023-01-19T02:06:11;3.60;89.60
13992;DHT22;7070;53.586;9.692;2023-01-19T02:08:42;3.60;89.50
13992;DHT22;7070;53.586;9.692;2023-01-19T02:11:29;3.60;89.40
13992;DHT22;7070;53.586;9.692;2023-01-19T02:14:14;3.70;89.50
13992;DHT22;7070;53.586;9.692;2023-01-19T02:16:40;3.60;89.30
13992;DHT22;7070;53.586;9.692;2023-01-19T02:19:13;3.70;89.40
13992;DHT22;7070;53.586;9.692;2023-01-19T02:21:45;3.60;89.20
13992;DHT22;7070;53.586;9.692;2023-01-19T02:24:16;3.70;90.00
13992;DHT22;7070;53.586;9.692;2023-01-19T02:26:44;3.60;89.10
13992;DHT22;7070;53.586;9.692;2023-01-19T02:29:15;3.70;89.80
13992;DHT22;7070;53.586;9.692;2023-01-19T02:31:42;3.70;89.00
13992;DHT22;7070;53.586;9.692;2023-01-19T02:34:12;3.70;88.90
13992;DHT22;7070;53.586;9.692;2023-01-19T02:36:44;3.70;88.90
13992;DHT22;7070;53.586;9.692;2023-01-19T02:39:17;3.70;88.90
13992;DHT22;7070;53.586;9.692;2023-01-19T02:41:49;3.70;88.80
13992;DHT22;7070;53.586;9.692;2023-01-19T02:44:18;3.80;88.80
13992;DHT22;7070;53.586;9.692;2023-01-19T02:46:46;3.70;88.60
13992;DHT22;7070;53.586;9.692;2023-01-19T02:49:13;3.80;88.70
13992;DHT22;7070;53.586;9.692;2023-01-19T02:51:42;3.80;88.60
13992;DHT22;7070;53.586;9.692;2023-01-19T02:57:52;3.80;88.50
13992;DHT22;7070;53.586;9.692;2023-01-19T03:00:28;3.80;88.40
13992;DHT22;7070;53.586;9.692;2023-01-19T03:03:14;3.80;88.40
13992;DHT22;7070;53.586;9.692;2023-01-19T03:05:53;3.80;88.20
13992;DHT22;7070;53.586;9.692;2023-01-19T03:08:30;3.80;88.30
13992;DHT22;7070;53.586;9.692;2023-01-19T03:11:01;3.80;88.30
13992;DHT22;7070;53.586;9.692;2023-01-19T03:13:37;3.80;88.20
13992;DHT22;7070;53.586;9.692;2023-01-19T03:16:41;3.80;88.10
13992;DHT22;7070;53.586;9.692;2023-01-19T03:19:13;3.90;88.10
13992;DHT22;7070;53.586;9.692;2023-01-19T03:21:45;3.80;87.90
13992;DHT22;7070;53.586;9.692;2023-01-19T03:24:14;3.80;88.50
13992;DHT22;7070;53.586;9.692;2023-01-19T03:26:46;3.90;87.70
13992;DHT22;7070;53.586;9.692;2023-01-19T03:29:17;3.80;87.60
13992;DHT22;7070;53.586;9.692;2023-01-19T03:31:46;3.80;87.50
13992;DHT22;7070;53.586;9.692;2023-01-19T03:34:15;3.90;87.50
13992;DHT22;7070;53.586;9.692;2023-01-19T03:36:44;3.80;87.30
13992;DHT22;7070;53.586;9.692;2023-01-19T03:39:14;3.80;87.30
13992;DHT22;7070;53.586;9.692;2023-01-19T03:41:46;3.90;87.50
13992;DHT22;7070;53.586;9.692;2023-01-19T03:44:16;3.80;87.20
13992;DHT22;7070;53.586;9.692;2023-01-19T03:46:43;3.80;87.10
13992;DHT22;7070;53.586;9.692;2023-01-19T03:49:11;3.90;87.30
13992;DHT22;7070;53.586;9.692;2023-01-19T03:51:38;3.90;87.20
13992;DHT22;7070;53.586;9.692;2023-01-19T03:54:06;3.90;87.20
13992;DHT22;7070;53.586;9.692;2023-01-19T03:56:33;3.90;87.20
13992;DHT22;7070;53.586;9.692;2023-01-19T03:59:00;3.90;87.10
13992;DHT22;7070;53.586;9.692;2023-01-19T04:01:31;3.90;87.10
13992;DHT22;7070;53.586;9.692;2023-01-19T04:03:58;3.90;87.00
13992;DHT22;7070;53.586;9.692;2023-01-19T04:06:25;3.90;87.00
13992;DHT22;7070;53.586;9.692;2023-01-19T04:08:52;3.90;87.10
13992;DHT22;7070;53.586;9.692;2023-01-19T04:11:20;4.00;87.10
13992;DHT22;7070;53.586;9.692;2023-01-19T04:13:47;3.90;87.00
13992;DHT22;7070;53.586;9.692;2023-01-19T04:16:14;3.90;87.00
13992;DHT22;7070;53.586;9.692;2023-01-19T04:18:45;3.90;86.90
13992;DHT22;7070;53.586;9.692;2023-01-19T04:21:12;3.90;86.90
13992;DHT22;7070;53.586;9.692;2023-01-19T04:23:39;3.90;86.90
13992;DHT22;7070;53.586;9.692;2023-01-19T04:26:07;3.90;86.90
13992;DHT22;7070;53.586;9.692;2023-01-19T04:28:34;3.90;87.60
13992;DHT22;7070;53.586;9.692;2023-01-19T04:31:03;4.00;86.90
13992;DHT22;7070;53.586;9.692;2023-01-19T04:33:30;3.90;86.90
13992;DHT22;7070;53.586;9.692;2023-01-19T04:35:58;3.90;86.90
13992;DHT22;7070;53.586;9.692;2023-01-19T04:38:25;4.00;86.90
13992;DHT22;7070;53.586;9.692;2023-01-19T04:40:53;3.90;86.90
13992;DHT22;7070;53.586;9.692;2023-01-19T04:43:21;4.00;86.90
13992;DHT22;7070;53.586;9.692;2023-01-19T04:45:48;4.00;86.90
13992;DHT22;7070;53.586;9.692;2023-01-19T04:48:15;3.90;86.70
13992;DHT22;7070;53.586;9.692;2023-01-19T04:50:43;4.00;86.80
13992;DHT22;7070;53.586;9.692;2023-01-19T04:53:11;4.00;86.80
13992;DHT22;7070;53.586;9.692;2023-01-19T04:55:40;3.90;86.70
13992;DHT22;7070;53.586;9.692;2023-01-19T04:58:07;3.90;86.70
13992;DHT22;7070;53.586;9.692;2023-01-19T05:00:34;4.00;86.90
13992;DHT22;7070;53.586;9.692;2023-01-19T05:03:01;4.00;86.90
13992;DHT22;7070;53.586;9.692;2023-01-19T05:05:28;4.00;86.80
13992;DHT22;7070;53.586;9.692;2023-01-19T05:07:57;4.00;86.80
13992;DHT22;7070;53.586;9.692;2023-01-19T05:10:25;4.00;86.80
13992;DHT22;7070;53.586;9.692;2023-01-19T05:12:52;4.00;86.70
13992;DHT22;7070;53.586;9.692;2023-01-19T05:15:19;4.00;86.90
13992;DHT22;7070;53.586;9.692;2023-01-19T05:17:46;4.00;86.80
13992;DHT22;7070;53.586;9.692;2023-01-19T05:20:13;4.00;86.80
13992;DHT22;7070;53.586;9.692;2023-01-19T05:22:39;4.00;86.90
13992;DHT22;7070;53.586;9.692;2023-01-19T05:25:07;4.10;87.00
13992;DHT22;7070;53.586;9.692;2023-01-19T05:27:36;4.00;86.90
13992;DHT22;7070;53.586;9.692;2023-01-19T05:30:03;4.10;87.00
13992;DHT22;7070;53.586;9.692;2023-01-19T05:32:30;4.10;87.70
13992;DHT22;7070;53.586;9.692;2023-01-19T05:34:57;4.10;86.90
13992;DHT22;7070;53.586;9.692;2023-01-19T05:37:24;4.10;86.90
13992;DHT22;7070;53.586;9.692;2023-01-19T05:39:51;4.10;86.90
13992;DHT22;7070;53.586;9.692;2023-01-19T05:42:18;4.10;86.80
13992;DHT22;7070;53.586;9.692;2023-01-19T05:44:46;4.10;86.90
13992;DHT22;7070;53.586;9.692;2023-01-19T05:47:13;4.00;86.70
13992;DHT22;7070;53.586;9.692;2023-01-19T05:49:40;4.10;86.80
13992;DHT22;7070;53.586;9.692;2023-01-19T05:52:07;4.10;86.80
13992;DHT22;7070;53.586;9.692;2023-01-19T05:54:34;4.10;86.90
13992;DHT22;7070;53.586;9.692;2023-01-19T05:57:01;4.10;86.80
13992;DHT22;7070;53.586;9.692;2023-01-19T05:59:29;4.10;86.70
13992;DHT22;7070;53.586;9.692;2023-01-19T06:01:57;4.10;86.70
13992;DHT22;7070;53.586;9.692;2023-01-19T06:04:24;4.10;86.60
13992;DHT22;7070;53.586;9.692;2023-01-19T06:06:51;4.10;86.70
13992;DHT22;7070;53.586;9.692;2023-01-19T06:09:18;4.00;86.50
13992;DHT22;7070;53.586;9.692;2023-01-19T06:11:45;4.00;86.60
13992;DHT22;7070;53.586;9.692;2023-01-19T06:14:13;4.00;86.60
13992;DHT22;7070;53.586;9.692;2023-01-19T06:16:39;4.00;86.60
13992;DHT22;7070;53.586;9.692;2023-01-19T06:19:08;3.90;86.60
13992;DHT22;7070;53.586;9.692;2023-01-19T06:21:35;3.90;86.70
13992;DHT22;7070;53.586;9.692;2023-01-19T06:24:02;4.00;86.80
13992;DHT22;7070;53.586;9.692;2023-01-19T06:26:29;3.90;86.80
13992;DHT22;7070;53.586;9.692;2023-01-19T06:28:56;4.00;86.90
13992;DHT22;7070;53.586;9.692;2023-01-19T06:31:22;4.00;86.90
13992;DHT22;7070;53.586;9.692;2023-01-19T06:33:49;4.00;87.00
13992;DHT22;7070;53.586;9.692;2023-01-19T06:36:17;3.90;86.90
13992;DHT22;7070;53.586;9.692;2023-01-19T06:38:44;4.00;87.00
13992;DHT22;7070;53.586;9.692;2023-01-19T06:41:11;4.00;87.10
13992;DHT22;7070;53.586;9.692;2023-01-19T06:43:38;3.90;87.00
13992;DHT22;7070;53.586;9.692;2023-01-19T06:46:05;3.90;87.10
13992;DHT22;7070;53.586;9.692;2023-01-19T06:48:32;4.00;87.30
13992;DHT22;7070;53.586;9.692;2023-01-19T06:50:59;4.00;87.30
13992;DHT22;7070;53.586;9.692;2023-01-19T06:53:27;4.00;87.20
13992;DHT22;7070;53.586;9.692;2023-01-19T06:55:57;4.00;87.20
13992;DHT22;7070;53.586;9.692;2023-01-19T06:58:25;4.00;88.00
13992;DHT22;7070;53.586;9.692;2023-01-19T07:00:52;4.00;87.30
13992;DHT22;7070;53.586;9.692;2023-01-19T07:03:21;4.00;87.40
13992;DHT22;7070;53.586;9.692;2023-01-19T07:05:50;4.00;87.50
13992;DHT22;7070;53.586;9.692;2023-01-19T07:08:17;4.00;87.40
13992;DHT22;7070;53.586;9.692;2023-01-19T07:10:45;4.00;87.50
13992;DHT22;7070;53.586;9.692;2023-01-19T07:13:12;4.00;87.40
13992;DHT22;7070;53.586;9.692;2023-01-19T07:15:39;4.00;87.50
13992;DHT22;7070;53.586;9.692;2023-01-19T07:18:06;4.10;87.60
13992;DHT22;7070;53.586;9.692;2023-01-19T07:20:34;4.10;88.30
13992;DHT22;7070;53.586;9.692;2023-01-19T07:23:01;4.00;88.20
13992;DHT22;7070;53.586;9.692;2023-01-19T07:25:28;4.10;87.60
13992;DHT22;7070;53.586;9.692;2023-01-19T07:27:57;4.00;87.60
13992;DHT22;7070;53.586;9.692;2023-01-19T07:30:24;4.00;87.50
13992;DHT22;7070;53.586;9.692;2023-01-19T07:32:54;4.10;87.60
13992;DHT22;7070;53.586;9.692;2023-01-19T07:35:21;4.10;87.70
13992;DHT22;7070;53.586;9.692;2023-01-19T07:37:48;4.10;87.60
13992;DHT22;7070;53.586;9.692;2023-01-19T07:40:15;4.10;87.60
13992;DHT22;7070;53.586;9.692;2023-01-19T07:42:45;4.10;87.70
13992;DHT22;7070;53.586;9.692;2023-01-19T07:45:14;4.10;87.70
13992;DHT22;7070;53.586;9.692;2023-01-19T07:47:42;4.10;87.80
13992;DHT22;7070;53.586;9.692;2023-01-19T07:50:10;4.00;87.70
13992;DHT22;7070;53.586;9.692;2023-01-19T07:52:38;4.10;87.70
13992;DHT22;7070;53.586;9.692;2023-01-19T07:55:05;4.10;87.80
13992;DHT22;7070;53.586;9.692;2023-01-19T07:57:32;4.10;87.80
13992;DHT22;7070;53.586;9.692;2023-01-19T07:59:59;4.10;87.80
13992;DHT22;7070;53.586;9.692;2023-01-19T08:02:30;4.20;87.90
13992;DHT22;7070;53.586;9.692;2023-01-19T08:04:58;4.20;88.00
13992;DHT22;7070;53.586;9.692;2023-01-19T08:07:25;4.20;87.90
13992;DHT22;7070;53.586;9.692;2023-01-19T08:09:52;4.30;88.10
13992;DHT22;7070;53.586;9.692;2023-01-19T08:12:19;4.30;88.00
13992;DHT22;7070;53.586;9.692;2023-01-19T08:14:46;4.30;88.00
13992;DHT22;7070;53.586;9.692;2023-01-19T08:17:12;4.30;88.00
13992;DHT22;7070;53.586;9.692;2023-01-19T08:19:41;4.30;87.90
13992;DHT22;7070;53.586;9.692;2023-01-19T08:22:08;4.40;88.10
13992;DHT22;7070;53.586;9.692;2023-01-19T08:24:35;4.40;88.00
13992;DHT22;7070;53.586;9.692;2023-01-19T08:27:01;4.40;88.00
13992;DHT22;7070;53.586;9.692;2023-01-19T08:29:29;4.40;88.00
13992;DHT22;7070;53.586;9.692;2023-01-19T08:31:56;4.50;88.10
13992;DHT22;7070;53.586;9.692;2023-01-19T08:34:24;4.50;88.00
13992;DHT22;7070;53.586;9.692;2023-01-19T08:36:53;4.50;87.90
13992;DHT22;7070;53.586;9.692;2023-01-19T08:39:19;4.50;87.80
13992;DHT22;7070;53.586;9.692;2023-01-19T08:41:48;4.60;87.90
13992;DHT22;7070;53.586;9.692;2023-01-19T08:44:15;4.60;87.90
13992;DHT22;7070;53.586;9.692;2023-01-19T08:46:42;4.60;87.80
13992;DHT22;7070;53.586;9.692;2023-01-19T08:49:17;4.60;87.70
13992;DHT22;7070;53.586;9.692;2023-01-19T08:51:44;4.60;87.70
13992;DHT22;7070;53.586;9.692;2023-01-19T08:54:13;4.70;87.70
13992;DHT22;7070;53.586;9.692;2023-01-19T08:56:41;4.70;87.70
13992;DHT22;7070;53.586;9.692;2023-01-19T08:59:08;4.60;87.60
13992;DHT22;7070;53.586;9.692;2023-01-19T09:01:35;4.70;87.70
13992;DHT22;7070;53.586;9.692;2023-01-19T09:04:02;4.70;87.70
13992;DHT22;7070;53.586;9.692;2023-01-19T09:06:29;4.70;87.70
13992;DHT22;7070;53.586;9.692;2023-01-19T09:08:57;4.70;87.70
13992;DHT22;7070;53.586;9.692;2023-01-19T09:11:25;4.70;87.80
13992;DHT22;7070;53.586;9.692;2023-01-19T09:13:53;4.80;87.90
13992;DHT22;7070;53.586;9.692;2023-01-19T09:16:19;4.80;88.10
13992;DHT22;7070;53.586;9.692;2023-01-19T09:18:46;4.80;88.00
13992;DHT22;7070;53.586;9.692;2023-01-19T09:21:14;4.80;88.00
13992;DHT22;7070;53.586;9.692;2023-01-19T09:23:41;4.90;88.00
13992;DHT22;7070;53.586;9.692;2023-01-19T09:26:09;4.90;88.00
13992;DHT22;7070;53.586;9.692;2023-01-19T09:28:37;4.90;88.00
13992;DHT22;7070;53.586;9.692;2023-01-19T09:31:05;4.90;88.00
13992;DHT22;7070;53.586;9.692;2023-01-19T09:33:33;5.00;88.10
13992;DHT22;7070;53.586;9.692;2023-01-19T09:36:00;5.00;88.00
13992;DHT22;7070;53.586;9.692;2023-01-19T09:38:27;5.00;87.90
13992;DHT22;7070;53.586;9.692;2023-01-19T09:40:57;5.00;87.80
13992;DHT22;7070;53.586;9.692;2023-01-19T09:43:34;5.10;87.90
13992;DHT22;7070;53.586;9.692;2023-01-19T09:46:09;5.10;88.50
13992;DHT22;7070;53.586;9.692;2023-01-19T09:48:43;5.10;87.80
13992;DHT22;7070;53.586;9.692;2023-01-19T09:51:15;5.20;87.90
13992;DHT22;7070;53.586;9.692;2023-01-19T09:53:59;5.10;87.80
13992;DHT22;7070;53.586;9.692;2023-01-19T09:56:29;5.20;87.80
13992;DHT22;7070;53.586;9.692;2023-01-19T09:58:57;5.20;87.80
13992;DHT22;7070;53.586;9.692;2023-01-19T10:01:36;5.30;88.00
13992;DHT22;7070;53.586;9.692;2023-01-19T10:04:33;5.30;87.90
13992;DHT22;7070;53.586;9.692;2023-01-19T10:07:12;5.40;87.90
13992;DHT22;7070;53.586;9.692;2023-01-19T10:09:56;5.50;88.00
13992;DHT22;7070;53.586;9.692;2023-01-19T10:12:35;5.60;88.00
13992;DHT22;7070;53.586;9.692;2023-01-19T10:15:16;5.60;87.80
13992;DHT22;7070;53.586;9.692;2023-01-19T10:17:55;5.70;87.70
13992;DHT22;7070;53.586;9.692;2023-01-19T10:20:30;5.70;87.60
13992;DHT22;7070;53.586;9.692;2023-01-19T10:22:59;5.70;87.50
13992;DHT22;7070;53.586;9.692;2023-01-19T10:25:27;5.60;87.30
13992;DHT22;7070;53.586;9.692;2023-01-19T10:27:54;5.70;87.30
13992;DHT22;7070;53.586;9.692;2023-01-19T10:30:24;5.70;87.40
13992;DHT22;7070;53.586;9.692;2023-01-19T10:32:54;5.70;87.40
13992;DHT22;7070;53.586;9.692;2023-01-19T10:35:22;5.70;87.30
13992;DHT22;7070;53.586;9.692;2023-01-19T10:37:50;5.60;87.20
13992;DHT22;7070;53.586;9.692;2023-01-19T10:40:26;5.70;87.30
13992;DHT22;7070;53.586;9.692;2023-01-19T10:42:55;5.60;87.50
13992;DHT22;7070;53.586;9.692;2023-01-19T10:45:24;5.70;88.40
13992;DHT22;7070;53.586;9.692;2023-01-19T10:47:57;5.80;87.70
13992;DHT22;7070;53.586;9.692;2023-01-19T10:50:26;5.80;87.60
13992;DHT22;7070;53.586;9.692;2023-01-19T10:52:55;5.90;87.70
13992;DHT22;7070;53.586;9.692;2023-01-19T10:55:26;5.90;87.70
13992;DHT22;7070;53.586;9.692;2023-01-19T10:57:53;5.90;87.60
13992;DHT22;7070;53.586;9.692;2023-01-19T11:00:32;5.90;87.60
13992;DHT22;7070;53.586;9.692;2023-01-19T11:03:01;5.90;87.50
13992;DHT22;7070;53.586;9.692;2023-01-19T11:05:29;5.90;88.30
13992;DHT22;7070;53.586;9.692;2023-01-19T11:07:57;6.00;87.60
13992;DHT22;7070;53.586;9.692;2023-01-19T11:10:25;5.90;87.50
13992;DHT22;7070;53.586;9.692;2023-01-19T11:12:59;5.90;87.50
13992;DHT22;7070;53.586;9.692;2023-01-19T11:15:32;5.90;88.30
13992;DHT22;7070;53.586;9.692;2023-01-19T11:18:03;5.90;87.60
13992;DHT22;7070;53.586;9.692;2023-01-19T11:20:38;5.80;87.30
13992;DHT22;7070;53.586;9.692;2023-01-19T11:23:19;5.90;87.40
13992;DHT22;7070;53.586;9.692;2023-01-19T11:25:49;5.90;87.50
13992;DHT22;7070;53.586;9.692;2023-01-19T11:28:18;5.90;87.50
13992;DHT22;7070;53.586;9.692;2023-01-19T11:30:57;5.90;87.50
13992;DHT22;7070;53.586;9.692;2023-01-19T11:33:32;5.90;87.60
13992;DHT22;7070;53.586;9.692;2023-01-19T11:36:05;5.90;87.60
13992;DHT22;7070;53.586;9.692;2023-01-19T11:38:39;5.90;87.60
13992;DHT22;7070;53.586;9.692;2023-01-19T11:41:16;5.90;87.60
13992;DHT22;7070;53.586;9.692;2023-01-19T11:43:44;6.00;87.70
13992;DHT22;7070;53.586;9.692;2023-01-19T11:46:11;6.00;87.70
13992;DHT22;7070;53.586;9.692;2023-01-19T11:48:44;6.00;87.60
13992;DHT22;7070;53.586;9.692;2023-01-19T11:51:14;6.00;87.60
13992;DHT22;7070;53.586;9.692;2023-01-19T11:53:47;6.00;87.70
13992;DHT22;7070;53.586;9.692;2023-01-19T11:56:14;6.00;87.60
13992;DHT22;7070;53.586;9.692;2023-01-19T11:58:43;6.00;87.70
13992;DHT22;7070;53.586;9.692;2023-01-19T12:01:17;6.00;87.50
13992;DHT22;7070;53.586;9.692;2023-01-19T12:03:53;6.00;87.60
13992;DHT22;7070;53.586;9.692;2023-01-19T12:06:24;6.00;88.40
13992;DHT22;7070;53.586;9.692;2023-01-19T12:08:55;6.00;87.70
13992;DHT22;7070;53.586;9.692;2023-01-19T12:11:26;6.00;87.70
13992;DHT22;7070;53.586;9.692;2023-01-19T12:13:56;6.00;87.70
13992;DHT22;7070;53.586;9.692;2023-01-19T12:16:26;6.00;88.50
13992;DHT22;7070;53.586;9.692;2023-01-19T12:18:58;6.10;87.70
13992;DHT22;7070;53.586;9.692;2023-01-19T12:21:26;6.00;87.70
13992;DHT22;7070;53.586;9.692;2023-01-19T12:24:02;6.00;87.70
13992;DHT22;7070;53.586;9.692;2023-01-19T12:26:35;6.00;87.80
13992;DHT22;7070;53.586;9.692;2023-01-19T12:29:07;6.10;88.10
13992;DHT22;7070;53.586;9.692;2023-01-19T12:31:36;6.10;88.10
13992;DHT22;7070;53.586;9.692;2023-01-19T12:34:28;6.10;88.10
13992;DHT22;7070;53.586;9.692;2023-01-19T12:37:00;6.20;88.30
13992;DHT22;7070;53.586;9.692;2023-01-19T12:39:28;6.20;88.40
13992;DHT22;7070;53.586;9.692;2023-01-19T12:42:05;6.20;88.30
13992;DHT22;7070;53.586;9.692;2023-01-19T12:44:34;6.30;88.40
13992;DHT22;7070;53.586;9.692;2023-01-19T12:47:16;6.30;88.30
13992;DHT22;7070;53.586;9.692;2023-01-19T12:49:47;6.30;88.10
13992;DHT22;7070;53.586;9.692;2023-01-19T12:52:25;6.30;88.00
13992;DHT22;7070;53.586;9.692;2023-01-19T12:54:58;6.30;88.00
13992;DHT22;7070;53.586;9.692;2023-01-19T12:57:29;6.40;88.10
13992;DHT22;7070;53.586;9.692;2023-01-19T12:59:58;6.30;88.00
13992;DHT22;7070;53.586;9.692;2023-01-19T13:02:49;6.30;88.00
13992;DHT22;7070;53.586;9.692;2023-01-19T13:08:23;6.40;88.20
13992;DHT22;7070;53.586;9.692;2023-01-19T13:16:55;6.40;88.00
13992;DHT22;7070;53.586;9.692;2023-01-19T13:19:34;6.40;87.90
13992;DHT22;7070;53.586;9.692;2023-01-19T13:25:10;6.30;87.60
13992;DHT22;7070;53.586;9.692;2023-01-19T13:27:37;6.30;87.60
13992;DHT22;7070;53.586;9.692;2023-01-19T13:30:10;6.20;87.70
13992;DHT22;7070;53.586;9.692;2023-01-19T13:32:40;6.20;87.80
13992;DHT22;7070;53.586;9.692;2023-01-19T13:35:12;6.20;87.90
13992;DHT22;7070;53.586;9.692;2023-01-19T13:37:42;6.20;88.00
13992;DHT22;7070;53.586;9.692;2023-01-19T13:40:17;6.20;88.20
13992;DHT22;7070;53.586;9.692;2023-01-19T13:42:46;6.30;88.30
13992;DHT22;7070;53.586;9.692;2023-01-19T13:45:26;6.20;88.10
13992;DHT22;7070;53.586;9.692;2023-01-19T13:47:57;6.20;88.10
13992;DHT22;7070;53.586;9.692;2023-01-19T13:50:26;6.30;88.00
13992;DHT22;7070;53.586;9.692;2023-01-19T13:52:54;6.30;88.00
13992;DHT22;7070;53.586;9.692;2023-01-19T13:55:25;6.20;87.70
13992;DHT22;7070;53.586;9.692;2023-01-19T13:57:53;6.10;87.60
13992;DHT22;7070;53.586;9.692;2023-01-19T14:00:22;6.10;87.60
13992;DHT22;7070;53.586;9.692;2023-01-19T14:02:52;6.00;87.50
13992;DHT22;7070;53.586;9.692;2023-01-19T14:05:22;6.00;87.70
13992;DHT22;7070;53.586;9.692;2023-01-19T14:08:09;6.00;87.70
13992;DHT22;7070;53.586;9.692;2023-01-19T14:10:40;5.90;88.00
13992;DHT22;7070;53.586;9.692;2023-01-19T14:13:14;5.90;88.30
13992;DHT22;7070;53.586;9.692;2023-01-19T14:15:42;5.90;88.50
13992;DHT22;7070;53.586;9.692;2023-01-19T14:18:21;5.90;88.40
13992;DHT22;7070;53.586;9.692;2023-01-19T14:20:57;5.90;88.40
13992;DHT22;7070;53.586;9.692;2023-01-19T14:23:37;5.90;88.50
13992;DHT22;7070;53.586;9.692;2023-01-19T14:26:39;5.90;88.50
13992;DHT22;7070;53.586;9.692;2023-01-19T14:29:17;5.90;88.30
13992;DHT22;7070;53.586;9.692;2023-01-19T14:31:45;5.80;87.90
13992;DHT22;7070;53.586;9.692;2023-01-19T14:34:32;5.70;87.80
13992;DHT22;7070;53.586;9.692;2023-01-19T14:37:00;5.70;87.80
13992;DHT22;7070;53.586;9.692;2023-01-19T14:39:30;5.60;87.80
13992;DHT22;7070;53.586;9.692;2023-01-19T14:42:00;5.60;87.80
13992;DHT22;7070;53.586;9.692;2023-01-19T14:44:30;5.60;87.80
13992;DHT22;7070;53.586;9.692;2023-01-19T14:46:59;5.60;87.70
13992;DHT22;7070;53.586;9.692;2023-01-19T14:49:30;5.50;87.60
13992;DHT22;7070;53.586;9.692;2023-01-19T14:51:59;5.40;87.40
13992;DHT22;7070;53.586;9.692;2023-01-19T14:54:30;5.30;87.30
13992;DHT22;7070;53.586;9.692;2023-01-19T14:57:00;5.30;87.20
13992;DHT22;7070;53.586;9.692;2023-01-19T14:59:27;5.20;87.20
13992;DHT22;7070;53.586;9.692;2023-01-19T15:01:54;5.10;87.10
13992;DHT22;7070;53.586;9.692;2023-01-19T15:04:21;5.00;87.00
13992;DHT22;7070;53.586;9.692;2023-01-19T15:06:49;4.90;87.00
13992;DHT22;7070;53.586;9.692;2023-01-19T15:09:16;4.80;87.00
13992;DHT22;7070;53.586;9.692;2023-01-19T15:11:46;4.70;87.00
13992;DHT22;7070;53.586;9.692;2023-01-19T15:14:16;4.60;87.00
13992;DHT22;7070;53.586;9.692;2023-01-19T15:16:44;4.60;87.10
13992;DHT22;7070;53.586;9.692;2023-01-19T15:19:12;4.50;87.10
13992;DHT22;7070;53.586;9.692;2023-01-19T15:21:39;4.30;87.10
13992;DHT22;7070;53.586;9.692;2023-01-19T15:24:07;4.30;87.20
13992;DHT22;7070;53.586;9.692;2023-01-19T15:26:35;4.20;87.30
13992;DHT22;7070;53.586;9.692;2023-01-19T15:29:11;4.20;87.30
13992;DHT22;7070;53.586;9.692;2023-01-19T15:31:41;4.10;87.30
13992;DHT22;7070;53.586;9.692;2023-01-19T15:34:10;4.10;87.50
13992;DHT22;7070;53.586;9.692;2023-01-19T15:36:37;4.00;87.30
13992;DHT22;7070;53.586;9.692;2023-01-19T15:39:04;3.90;87.30
13992;DHT22;7070;53.586;9.692;2023-01-19T15:41:31;3.80;87.20
13992;DHT22;7070;53.586;9.692;2023-01-19T15:43:58;3.70;87.10
13992;DHT22;7070;53.586;9.692;2023-01-19T15:46:25;3.70;87.10
13992;DHT22;7070;53.586;9.692;2023-01-19T15:48:53;3.60;87.20
13992;DHT22;7070;53.586;9.692;2023-01-19T15:51:22;3.50;87.20
13992;DHT22;7070;53.586;9.692;2023-01-19T15:53:49;3.50;87.30
13992;DHT22;7070;53.586;9.692;2023-01-19T15:56:18;3.40;87.30
13992;DHT22;7070;53.586;9.692;2023-01-19T15:58:45;3.30;87.20
13992;DHT22;7070;53.586;9.692;2023-01-19T16:01:13;3.40;87.40
13992;DHT22;7070;53.586;9.692;2023-01-19T16:03:41;3.20;87.20
13992;DHT22;7070;53.586;9.692;2023-01-19T16:06:09;3.10;87.40
13992;DHT22;7070;53.586;9.692;2023-01-19T16:08:37;3.10;87.60
13992;DHT22;7070;53.586;9.692;2023-01-19T16:11:05;3.10;87.70
13992;DHT22;7070;53.586;9.692;2023-01-19T16:13:32;3.00;87.60
13992;DHT22;7070;53.586;9.692;2023-01-19T16:16:02;3.00;87.50
13992;DHT22;7070;53.586;9.692;2023-01-19T16:18:29;3.00;87.60
13992;DHT22;7070;53.586;9.692;2023-01-19T16:20:56;2.90;87.70
13992;DHT22;7070;53.586;9.692;2023-01-19T16:23:24;2.80;87.60
13992;DHT22;7070;53.586;9.692;2023-01-19T16:25:55;2.80;87.70
13992;DHT22;7070;53.586;9.692;2023-01-19T16:28:23;2.70;87.50
13992;DHT22;7070;53.586;9.692;2023-01-19T16:30:49;2.80;87.70
13992;DHT22;7070;53.586;9.692;2023-01-19T16:33:17;2.70;87.50
13992;DHT22;7070;53.586;9.692;2023-01-19T16:35:44;2.70;87.50